Time;durP1;ratioP1;P1;durP2;ratioP2;P2;SDS_P1;SDS_P2;PMS_P1;PMS_P2;Temp;Humidity;BMP_temperature;BMP_pressure;BME280_temperature;BME280_humidity;BME280_pressure;Samples;Min_cycle;Max_cycle;Signal;HPM_P1;HPM_P2
2022/02/01 00:01:29;;;;;;;44.20;25.55;;;0.40;99.90;;;;;;5012739;28;20091;-78
2022/02/01 00:04:02;;;;;;;42.13;24.38;;;0.40;99.90;;;;;;5012572;28;20494;-78
2022/02/01 00:06:52;;;;;;;37.72;23.00;;;0.40;99.90;;;;;;4994932;28;20102;-79
2022/02/01 00:09:25;;;;;;;44.05;24.80;;;0.40;99.90;;;;;;5011655;28;20119;-78
2022/02/01 00:14:35;;;;;;;40.22;22.70;;;0.40;99.90;;;;;;5012753;28;20060;-78
2022/02/01 00:38:23;;;;;;;37.42;20.42;;;0.40;99.90;;;;;;5038980;28;19905;-78
2022/02/01 00:40:54;;;;;;;40.25;21.58;;;0.30;99.90;;;;;;5038932;28;20014;-78
2022/02/01 00:43:21;;;;;;;40.78;23.50;;;0.30;99.90;;;;;;5039106;28;20069;-78
2022/02/01 00:45:47;;;;;;;42.38;24.02;;;0.30;99.90;;;;;;5039330;28;20029;-78
2022/02/01 00:48:13;;;;;;;37.28;23.88;;;0.30;99.90;;;;;;5040063;28;20029;-80
2022/02/01 00:50:39;;;;;;;40.17;26.35;;;0.30;99.90;;;;;;5020981;28;20037;-80
2022/02/01 00:53:06;;;;;;;44.78;25.05;;;0.30;99.90;;;;;;5039149;28;20021;-81
2022/02/01 00:55:32;;;;;;;45.35;25.85;;;0.30;99.90;;;;;;5039115;28;20025;-79
2022/02/01 00:57:58;;;;;;;48.53;23.88;;;0.30;99.90;;;;;;5039008;28;20032;-79
2022/02/01 01:00:23;;;;;;;47.25;23.38;;;0.30;99.90;;;;;;5038487;28;20026;-77
2022/02/01 01:02:49;;;;;;;46.30;26.15;;;0.30;99.90;;;;;;5038733;28;20056;-79
2022/02/01 01:05:15;;;;;;;46.10;25.83;;;0.30;99.90;;;;;;5037274;28;20032;-79
2022/02/01 01:07:41;;;;;;;44.30;25.10;;;0.30;99.90;;;;;;5019048;28;20159;-80
2022/02/01 01:10:09;;;;;;;44.13;24.98;;;0.30;99.90;;;;;;5020305;28;20068;-77
2022/02/01 01:12:43;;;;;;;43.35;25.73;;;0.40;99.90;;;;;;5028194;28;20018;-77
2022/02/01 01:45:09;;;;;;;42.15;24.00;;;0.50;99.90;;;;;;5015295;28;20079;-79
2022/02/01 01:53:20;;;;;;;42.90;25.45;;;0.40;99.90;;;;;;5022126;28;20036;-79
2022/02/01 01:55:50;;;;;;;44.45;25.33;;;0.40;99.90;;;;;;5014827;28;20022;-80
2022/02/01 01:58:16;;;;;;;39.50;22.23;;;0.40;99.90;;;;;;5027433;28;20489;-80
2022/02/01 02:01:09;;;;;;;43.72;26.25;;;0.50;99.90;;;;;;5034743;28;20105;-80
2022/02/01 02:03:35;;;;;;;46.63;26.52;;;0.50;99.90;;;;;;5034768;28;20042;-79
2022/02/01 02:06:00;;;;;;;50.97;28.52;;;0.40;99.90;;;;;;5034676;28;20048;-80
2022/02/01 02:08:28;;;;;;;44.78;26.85;;;0.50;99.90;;;;;;5034445;28;20033;-80
2022/02/01 02:11:01;;;;;;;44.00;26.23;;;0.50;99.90;;;;;;5034447;28;20018;-79
2022/02/01 02:16:00;;;;;;;47.20;27.95;;;0.50;99.90;;;;;;5029062;28;20387;-80
2022/02/01 02:18:29;;;;;;;44.85;26.23;;;0.50;99.90;;;;;;5034665;28;20415;-78
2022/02/01 02:20:56;;;;;;;39.53;24.38;;;0.50;99.90;;;;;;5034450;28;20376;-79
2022/02/01 02:23:22;;;;;;;;;;;0.50;99.90;;;;;;5034789;28;20032;-77
2022/02/01 02:25:49;;;;;;;44.83;24.88;;;0.50;99.90;;;;;;5034410;28;20282;-80
2022/02/01 02:28:17;;;;;;;41.58;23.48;;;0.40;99.90;;;;;;5034019;28;20029;-80
2022/02/01 02:30:48;;;;;;;51.38;27.60;;;0.40;99.90;;;;;;5034086;28;20045;-79
2022/02/01 02:33:16;;;;;;;41.97;26.38;;;0.40;99.90;;;;;;5019185;28;20042;-79
2022/02/01 02:35:59;;;;;;;42.60;23.05;;;0.50;99.90;;;;;;4996736;28;20026;-79
2022/02/01 02:41:29;;;;;;;39.28;23.35;;;0.50;99.90;;;;;;4978324;28;20042;-80
2022/02/01 02:46:46;;;;;;;34.45;20.27;;;0.40;99.90;;;;;;5016694;28;20032;-80
2022/02/01 02:49:15;;;;;;;40.05;24.23;;;0.40;99.90;;;;;;5015969;28;20026;-79
2022/02/01 02:51:41;;;;;;;33.17;21.27;;;0.40;99.90;;;;;;5015238;28;20105;-80
2022/02/01 02:54:13;;;;;;;41.08;22.17;;;0.50;99.90;;;;;;5014598;28;20077;-79
2022/02/01 02:56:43;;;;;;;37.22;20.98;;;0.40;99.90;;;;;;5013077;28;20030;-79
2022/02/01 02:59:10;;;;;;;38.17;19.50;;;0.40;99.90;;;;;;4997185;28;20033;-78
2022/02/01 03:01:36;;;;;;;39.90;23.20;;;0.40;99.90;;;;;;4997178;28;20109;-79
2022/02/01 03:04:02;;;;;;;35.80;20.02;;;0.30;99.90;;;;;;5014026;28;20374;-78
2022/02/01 03:06:27;;;;;;;40.08;22.63;;;0.30;99.90;;;;;;5014014;28;20026;-78
2022/02/01 03:08:53;;;;;;;36.58;20.67;;;0.30;99.90;;;;;;5013477;28;20057;-80
2022/02/01 03:11:19;;;;;;;32.58;21.40;;;0.30;99.90;;;;;;5013602;28;20026;-79
2022/02/01 03:13:51;;;;;;;34.65;20.02;;;0.30;99.90;;;;;;5013432;28;20549;-79
2022/02/01 03:21:34;;;;;;;37.45;20.15;;;0.20;99.90;;;;;;5014318;28;20041;-80
2022/02/01 03:24:00;;;;;;;36.92;21.52;;;0.20;99.90;;;;;;5014510;28;20034;-79
2022/02/01 03:26:25;;;;;;;41.95;21.60;;;0.20;99.90;;;;;;5014368;28;20026;-79
2022/02/01 03:28:51;;;;;;;36.70;22.60;;;0.20;99.90;;;;;;5013199;28;20029;-81
2022/02/01 03:31:17;;;;;;;38.17;22.15;;;0.20;99.90;;;;;;5013269;28;20046;-78
2022/02/01 03:33:44;;;;;;;37.80;22.67;;;0.30;99.90;;;;;;5012269;28;20026;-81
2022/02/01 03:36:10;;;;;;;40.10;23.45;;;0.20;99.90;;;;;;5013174;28;20021;-78
2022/02/01 03:38:36;;;;;;;36.75;23.05;;;0.20;99.90;;;;;;5012565;28;20395;-80
2022/02/01 03:41:03;;;;;;;38.78;22.23;;;0.20;99.90;;;;;;5012928;28;20026;-79
2022/02/01 03:43:28;;;;;;;36.88;21.67;;;0.20;99.90;;;;;;5012634;28;20065;-80
2022/02/01 03:45:54;;;;;;;37.85;22.27;;;0.20;99.90;;;;;;5011368;28;20062;-78
2022/02/01 03:48:20;;;;;;;36.58;22.05;;;0.10;99.90;;;;;;4995053;28;20029;-79
2022/02/01 03:50:46;;;;;;;30.05;19.27;;;0.20;99.90;;;;;;5012788;28;20022;-80
2022/02/01 03:53:13;;;;;;;28.20;18.48;;;0.10;99.90;;;;;;5012885;28;20109;-79
2022/02/01 03:55:39;;;;;;;30.30;19.75;;;0.10;99.90;;;;;;5012305;28;20117;-79
2022/02/01 03:58:05;;;;;;;34.17;19.52;;;0.10;99.90;;;;;;5012676;28;20034;-80
2022/02/01 04:00:31;;;;;;;29.45;19.33;;;0.10;99.90;;;;;;5011556;28;20475;-81
2022/02/01 04:02:59;;;;;;;30.40;18.42;;;0.10;99.90;;;;;;4994345;28;20509;-80
2022/02/01 04:05:25;;;;;;;33.25;19.15;;;0.10;99.90;;;;;;5012605;28;20483;-79
2022/02/01 04:07:51;;;;;;;29.92;19.17;;;0.10;99.90;;;;;;5012694;28;20029;-80
2022/02/01 04:10:20;;;;;;;26.50;15.65;;;0.10;99.90;;;;;;5009189;28;20037;-81
2022/02/01 04:12:45;;;;;;;32.97;18.35;;;0.10;99.90;;;;;;5024420;28;20116;-79
2022/02/01 04:15:11;;;;;;;28.08;18.05;;;0.00;99.90;;;;;;5032573;28;20101;-79
2022/02/01 04:17:39;;;;;;;32.10;19.27;;;0.00;99.80;;;;;;5033175;28;20450;-80
2022/02/01 04:20:06;;;;;;;21.83;16.60;;;-0.10;99.80;;;;;;5032430;28;20060;-80
2022/02/01 04:22:31;;;;;;;30.10;18.77;;;-0.10;99.90;;;;;;5032049;28;20529;-80
2022/02/01 04:24:57;;;;;;;29.10;18.90;;;-0.10;99.90;;;;;;5014341;28;20029;-78
2022/02/01 04:27:32;;;;;;;29.50;17.98;;;0.00;99.90;;;;;;5031181;28;20668;-80
2022/02/01 04:30:20;;;;;;;28.98;19.65;;;0.00;99.80;;;;;;5032055;28;20103;-80
2022/02/01 04:32:49;;;;;;;26.50;17.58;;;-0.10;99.60;;;;;;5013598;28;20042;-80
2022/02/01 04:35:19;;;;;;;27.33;16.25;;;-0.10;99.50;;;;;;5031677;28;20046;-79
2022/02/01 04:37:46;;;;;;;32.58;17.35;;;-0.10;99.40;;;;;;5032048;28;20041;-80
2022/02/01 04:40:17;;;;;;;28.77;17.30;;;-0.10;99.60;;;;;;5032144;28;20029;-81
2022/02/01 04:42:44;;;;;;;30.92;18.35;;;-0.10;99.50;;;;;;5032434;28;20091;-79
2022/02/01 04:45:30;;;;;;;31.83;16.35;;;-0.10;99.50;;;;;;5016726;28;20026;-82
2022/02/01 04:47:56;;;;;;;27.20;15.82;;;0.00;99.30;;;;;;5012566;28;20061;-81
2022/02/01 04:50:29;;;;;;;25.83;16.42;;;-0.10;99.20;;;;;;5012566;28;20022;-80
2022/02/01 04:52:55;;;;;;;24.15;16.48;;;-0.10;99.20;;;;;;5011484;28;20022;-79
2022/02/01 04:55:24;;;;;;;27.52;15.95;;;-0.10;99.20;;;;;;5012180;28;20026;-79
2022/02/01 04:57:54;;;;;;;27.40;17.23;;;-0.10;99.10;;;;;;5012240;28;20034;-79
2022/02/01 05:00:29;;;;;;;24.05;13.98;;;-0.10;99.20;;;;;;5022568;28;20105;-79
2022/02/01 05:02:56;;;;;;;28.40;18.23;;;-0.10;99.00;;;;;;5032711;28;20056;-79
2022/02/01 05:05:28;;;;;;;26.42;16.17;;;-0.10;99.00;;;;;;5031851;28;20022;-80
2022/02/01 05:08:10;;;;;;;28.38;17.17;;;-0.20;99.00;;;;;;5031535;28;20140;-79
2022/02/01 05:10:37;;;;;;;27.48;16.77;;;-0.20;98.90;;;;;;5024847;28;20030;-80
2022/02/01 05:15:34;;;;;;;21.92;14.18;;;-0.20;99.20;;;;;;5016044;28;20072;-78
2022/02/01 05:17:59;;;;;;;26.58;14.00;;;-0.20;98.90;;;;;;5017710;28;20110;-79
2022/02/01 05:23:10;;;;;;;23.13;15.38;;;-0.20;98.80;;;;;;5015430;28;20418;-79
2022/02/01 05:25:36;;;;;;;25.92;16.33;;;-0.20;98.90;;;;;;5015092;28;20022;-82
2022/02/01 05:28:02;;;;;;;26.52;14.73;;;-0.20;99.00;;;;;;5015706;28;20025;-79
2022/02/01 05:30:29;;;;;;;25.95;14.57;;;-0.20;98.90;;;;;;5016163;28;20091;-78
2022/02/01 05:32:55;;;;;;;29.40;16.33;;;-0.20;98.90;;;;;;5020700;28;20030;-79
2022/02/01 05:35:21;;;;;;;32.80;16.92;;;-0.30;98.80;;;;;;5018205;28;20030;-81
2022/02/01 05:37:48;;;;;;;26.60;15.55;;;-0.30;98.80;;;;;;5015466;28;20414;-83
2022/02/01 05:40:14;;;;;;;28.88;15.88;;;-0.30;98.80;;;;;;5015572;28;20022;-80
2022/02/01 05:42:46;;;;;;;29.27;17.87;;;-0.30;98.90;;;;;;5015237;28;20077;-81
2022/02/01 05:45:13;;;;;;;27.35;16.20;;;-0.30;98.80;;;;;;5016856;28;20268;-79
2022/02/01 05:47:39;;;;;;;30.77;17.98;;;-0.30;98.80;;;;;;5015828;28;20034;-80
2022/02/01 05:50:05;;;;;;;23.55;14.15;;;-0.30;98.80;;;;;;5019857;28;20476;-82
2022/02/01 05:52:32;;;;;;;25.45;16.35;;;-0.30;98.80;;;;;;5020645;28;20026;-82
2022/02/01 05:54:58;;;;;;;23.10;16.27;;;-0.40;98.80;;;;;;5015922;28;20050;-81
2022/02/01 05:57:26;;;;;;;28.30;15.93;;;-0.40;98.90;;;;;;5015766;28;20022;-82
2022/02/01 05:59:52;;;;;;;28.42;16.02;;;-0.40;98.90;;;;;;5030539;28;20426;-80
2022/02/01 06:02:19;;;;;;;30.23;17.67;;;-0.40;99.00;;;;;;5035835;28;20021;-81
2022/02/01 06:04:44;;;;;;;27.00;16.48;;;-0.40;99.00;;;;;;5035103;28;20851;-82
2022/02/01 06:07:10;;;;;;;29.85;16.88;;;-0.40;99.10;;;;;;5034271;28;20041;-80
2022/02/01 06:09:36;;;;;;;29.45;17.40;;;-0.40;99.10;;;;;;5026459;28;20030;-80
2022/02/01 06:12:02;;;;;;;32.20;18.48;;;-0.40;99.20;;;;;;5014338;28;20029;-80
2022/02/01 06:14:28;;;;;;;26.83;16.77;;;-0.30;99.30;;;;;;4996457;28;20026;-80
2022/02/01 06:16:54;;;;;;;28.02;18.02;;;-0.30;99.30;;;;;;5023283;28;20026;-81
2022/02/01 06:19:20;;;;;;;32.00;17.95;;;-0.30;99.30;;;;;;5015660;28;20114;-80
2022/02/01 06:21:45;;;;;;;30.45;19.17;;;-0.30;99.30;;;;;;5019084;28;20394;-80
2022/02/01 06:24:16;;;;;;;36.67;19.85;;;-0.30;99.30;;;;;;5013536;28;20042;-80
2022/02/01 06:26:42;;;;;;;31.65;20.38;;;-0.20;99.30;;;;;;5013331;28;20022;-81
2022/02/01 06:29:07;;;;;;;33.65;19.70;;;-0.20;99.30;;;;;;5013653;28;20497;-80
2022/02/01 06:31:33;;;;;;;32.38;16.83;;;-0.10;99.20;;;;;;5014518;28;20018;-80
2022/02/01 06:33:59;;;;;;;32.70;21.50;;;-0.10;99.10;;;;;;5013831;28;20125;-80
2022/02/01 06:36:25;;;;;;;34.90;20.98;;;-0.10;99.10;;;;;;5014894;28;20030;-82
2022/02/01 06:38:51;;;;;;;44.13;22.67;;;-0.10;99.00;;;;;;5014038;28;20077;-81
2022/02/01 06:41:18;;;;;;;33.90;21.60;;;-0.20;99.00;;;;;;5014182;28;20335;-82
2022/02/01 06:43:45;;;;;;;;;;;-0.10;99.10;;;;;;5015379;28;20037;-82
2022/02/01 06:46:10;;;;;;;42.28;20.98;;;-0.10;99.10;;;;;;5014905;28;20047;-81
2022/02/01 06:48:36;;;;;;;37.63;21.88;;;-0.20;99.10;;;;;;5015062;28;20068;-82
2022/02/01 06:51:02;;;;;;;34.58;20.83;;;-0.20;99.00;;;;;;5014036;28;20411;-83
2022/02/01 06:53:32;;;;;;;40.30;22.67;;;-0.20;99.10;;;;;;5014081;28;20022;-81
2022/02/01 06:56:06;;;;;;;38.20;23.98;;;-0.20;99.10;;;;;;5014276;28;20034;-83
2022/02/01 06:58:32;;;;;;;37.20;22.50;;;-0.20;99.10;;;;;;5013930;28;20022;-79
2022/02/01 07:00:58;;;;;;;40.30;23.27;;;-0.20;99.20;;;;;;4996011;28;20026;-78
2022/02/01 07:03:23;;;;;;;44.28;24.63;;;-0.10;99.20;;;;;;5013417;28;20475;-82
2022/02/01 07:05:49;;;;;;;44.67;25.42;;;-0.10;99.30;;;;;;5014799;28;20536;-83
2022/02/01 07:08:15;;;;;;;43.58;23.77;;;-0.10;99.20;;;;;;5012568;28;20510;-81
2022/02/01 07:10:41;;;;;;;46.35;25.65;;;-0.10;99.20;;;;;;5013439;28;20022;-78
2022/02/01 07:13:07;;;;;;;42.70;24.92;;;-0.10;99.20;;;;;;5013312;28;20479;-80
2022/02/01 07:15:33;;;;;;;52.80;26.10;;;0.00;99.20;;;;;;5013448;28;20068;-82
2022/02/01 07:17:58;;;;;;;47.35;27.27;;;0.00;99.20;;;;;;5011802;28;20159;-78
2022/02/01 07:20:24;;;;;;;51.58;27.75;;;0.00;99.30;;;;;;5013319;28;20018;-81
2022/02/01 07:22:50;;;;;;;53.78;27.95;;;0.10;99.30;;;;;;5013000;28;20479;-79
2022/02/01 07:27:51;;;;;;;43.45;23.88;;;0.10;99.20;;;;;;5013839;28;20372;-80
2022/02/01 07:30:19;;;;;;;49.23;27.87;;;0.20;99.20;;;;;;5028923;28;20094;-80
2022/02/01 07:32:48;;;;;;;43.88;25.20;;;0.20;99.20;;;;;;5033795;28;20263;-79
2022/02/01 07:35:14;;;;;;;45.00;26.40;;;0.20;99.00;;;;;;5036986;28;20032;-79
2022/02/01 07:37:42;;;;;;;46.00;26.35;;;0.20;99.00;;;;;;5018999;28;20022;-78
2022/02/01 07:40:08;;;;;;;46.63;25.17;;;0.20;99.10;;;;;;5038627;28;20056;-79
2022/02/01 07:42:35;;;;;;;50.53;25.10;;;0.20;99.10;;;;;;5038783;28;20045;-82
2022/02/01 07:45:05;;;;;;;54.47;28.77;;;0.20;99.20;;;;;;5016978;28;20034;-79
2022/02/01 07:47:48;;;;;;;47.58;25.90;;;0.20;99.20;;;;;;5015094;28;20271;-80
2022/02/01 07:50:14;;;;;;;44.67;25.35;;;0.20;99.20;;;;;;5033350;28;20021;-79
2022/02/01 07:52:40;;;;;;;43.08;25.17;;;0.20;99.20;;;;;;5031713;28;20501;-79
2022/02/01 07:55:07;;;;;;;43.60;22.88;;;0.30;99.30;;;;;;5014582;28;20079;-79
2022/02/01 07:57:33;;;;;;;43.10;24.92;;;0.20;99.30;;;;;;5032438;28;20022;-79
2022/02/01 07:59:59;;;;;;;36.88;22.77;;;0.20;99.40;;;;;;5032819;28;20501;-79
2022/02/01 08:02:25;;;;;;;41.00;23.83;;;0.30;99.50;;;;;;5031157;28;20044;-79
2022/02/01 08:04:57;;;;;;;47.35;26.02;;;0.30;99.50;;;;;;5032756;28;20112;-80
2022/02/01 08:07:24;;;;;;;45.15;23.40;;;0.30;99.50;;;;;;5019740;28;20033;-81
2022/02/01 08:09:55;;;;;;;46.72;24.58;;;0.30;99.60;;;;;;5012312;28;20103;-80
2022/02/01 08:18:15;;;;;;;43.20;22.35;;;0.30;99.60;;;;;;4958689;28;20051;-80
2022/02/01 08:20:57;;;;;;;38.00;21.55;;;0.30;99.60;;;;;;5006119;28;20032;-80
2022/02/01 08:23:23;;;;;;;39.38;21.65;;;0.30;99.70;;;;;;5014484;28;20482;-82
2022/02/01 08:26:04;;;;;;;41.10;23.65;;;0.30;99.60;;;;;;5030824;28;20121;-82
2022/02/01 08:28:30;;;;;;;39.33;21.48;;;0.30;99.50;;;;;;5031979;28;20064;-82
2022/02/01 08:30:56;;;;;;;37.92;23.55;;;0.40;99.50;;;;;;5031886;28;20077;-79
2022/02/01 08:33:22;;;;;;;36.83;18.88;;;0.40;99.50;;;;;;5031878;28;20022;-80
2022/02/01 08:35:49;;;;;;;31.90;20.10;;;0.40;99.50;;;;;;5032177;28;20359;-79
2022/02/01 08:38:15;;;;;;;46.45;22.38;;;0.30;99.50;;;;;;5014200;28;20399;-79
2022/02/01 08:40:41;;;;;;;40.47;21.77;;;0.40;99.60;;;;;;5012027;28;20013;-80
2022/02/01 08:43:10;;;;;;;34.95;19.60;;;0.40;99.60;;;;;;5012159;28;20537;-80
2022/02/01 08:45:35;;;;;;;35.67;19.95;;;0.40;99.70;;;;;;5010863;28;20088;-80
2022/02/01 08:48:01;;;;;;;43.58;23.90;;;0.40;99.70;;;;;;5012467;28;20068;-81
2022/02/01 08:50:31;;;;;;;40.33;21.55;;;0.40;99.80;;;;;;5016087;28;20021;-81
2022/02/01 08:53:03;;;;;;;36.65;21.63;;;0.40;99.80;;;;;;5014907;28;20032;-80
2022/02/01 08:58:19;;;;;;;38.35;21.10;;;0.40;99.80;;;;;;4987747;28;20506;-80
2022/02/01 09:00:45;;;;;;;40.70;20.88;;;0.40;99.80;;;;;;5014624;28;20196;-81
2022/02/01 09:03:14;;;;;;;35.00;19.77;;;0.40;99.90;;;;;;5015758;28;20157;-79
2022/02/01 09:05:41;;;;;;;38.08;22.55;;;0.40;99.90;;;;;;5015804;28;20422;-81
2022/02/01 09:08:07;;;;;;;42.00;21.08;;;0.40;99.90;;;;;;4997899;28;20112;-78
2022/02/01 09:10:33;;;;;;;40.42;20.45;;;0.50;99.90;;;;;;5012895;28;20033;-79
2022/02/01 09:12:59;;;;;;;32.25;20.40;;;0.50;99.80;;;;;;5034322;28;20445;-80
2022/02/01 09:15:26;;;;;;;37.45;20.30;;;0.50;99.70;;;;;;5035138;28;20026;-79
2022/02/01 09:17:54;;;;;;;34.78;20.50;;;0.50;99.60;;;;;;5017716;28;20494;-81
2022/02/01 09:20:20;;;;;;;34.65;19.33;;;0.50;99.70;;;;;;5034592;28;20494;-78
2022/02/01 09:22:46;;;;;;;37.42;23.90;;;0.50;99.70;;;;;;5017635;28;20033;-80
2022/02/01 09:25:14;;;;;;;40.38;22.55;;;0.50;99.70;;;;;;5035495;28;20437;-80
2022/02/01 09:27:40;;;;;;;34.40;20.05;;;0.60;99.80;;;;;;5024834;28;20060;-81
2022/02/01 09:30:07;;;;;;;30.92;19.10;;;0.60;99.80;;;;;;5015012;28;20077;-80
2022/02/01 09:32:32;;;;;;;32.60;20.10;;;0.60;99.80;;;;;;5015471;28;20105;-81
2022/02/01 09:34:58;;;;;;;35.33;18.83;;;0.70;99.70;;;;;;4997578;28;20060;-79
2022/02/01 09:37:24;;;;;;;39.83;19.20;;;0.70;99.60;;;;;;5015465;28;20029;-79
2022/02/01 09:39:50;;;;;;;29.95;17.13;;;0.70;99.50;;;;;;4997802;28;20029;-78
2022/02/01 09:42:17;;;;;;;32.55;19.90;;;0.70;99.50;;;;;;5017519;28;20025;-78
2022/02/01 09:44:44;;;;;;;35.15;21.27;;;0.70;99.50;;;;;;5015349;28;20034;-79
2022/02/01 09:47:11;;;;;;;34.53;20.35;;;0.70;99.40;;;;;;5017693;28;20111;-81
2022/02/01 09:49:38;;;;;;;31.05;20.58;;;0.70;99.30;;;;;;5021357;28;20045;-80
2022/02/01 09:52:07;;;;;;;35.55;17.00;;;0.70;99.20;;;;;;5023156;28;20013;-80
2022/02/01 09:54:33;;;;;;;34.65;17.75;;;0.70;99.20;;;;;;5017136;28;20026;-79
2022/02/01 09:57:04;;;;;;;31.27;18.02;;;0.70;99.30;;;;;;5015736;28;20101;-81
2022/02/01 09:59:32;;;;;;;30.17;20.35;;;0.70;99.20;;;;;;5016838;28;20509;-80
2022/02/01 10:02:10;;;;;;;31.80;18.38;;;0.70;99.20;;;;;;5016031;28;20072;-81
2022/02/01 10:04:36;;;;;;;27.08;15.77;;;0.70;99.20;;;;;;5022670;28;20074;-80
2022/02/01 10:07:10;;;;;;;33.85;17.45;;;0.70;99.20;;;;;;5014895;28;20040;-82
2022/02/01 10:09:52;;;;;;;26.83;15.43;;;0.70;99.20;;;;;;5014636;28;20495;-81
2022/02/01 10:12:19;;;;;;;28.17;15.48;;;0.70;99.00;;;;;;4997366;28;20367;-78
2022/02/01 10:14:53;;;;;;;36.13;17.50;;;0.70;99.00;;;;;;5014319;28;20022;-81
2022/02/01 10:17:41;;;;;;;25.52;14.25;;;0.70;99.00;;;;;;5015046;28;20030;-79
2022/02/01 10:20:07;;;;;;;28.17;14.52;;;0.70;99.00;;;;;;5014566;28;20034;-81
2022/02/01 10:22:35;;;;;;;36.20;16.42;;;0.70;99.00;;;;;;5013554;28;20033;-83
2022/02/01 10:25:05;;;;;;;31.95;17.00;;;0.80;99.00;;;;;;5020785;28;20490;-82
2022/02/01 10:27:32;;;;;;;28.40;16.23;;;0.80;99.10;;;;;;5033437;28;20547;-84
2022/02/01 10:30:12;;;;;;;26.58;17.60;;;0.90;99.00;;;;;;5016333;28;20045;-83
2022/02/01 10:35:47;;;;;;;26.15;14.32;;;1.10;98.70;;;;;;5034343;28;20497;-82
2022/02/01 10:38:13;;;;;;;30.10;17.77;;;1.10;98.40;;;;;;5034358;28;20021;-82
2022/02/01 10:40:45;;;;;;;28.73;17.30;;;1.10;98.20;;;;;;5016228;28;20037;-82
2022/02/01 10:43:26;;;;;;;28.25;16.73;;;1.10;98.10;;;;;;5033125;28;20430;-83
2022/02/01 10:45:55;;;;;;;33.35;17.17;;;1.10;98.00;;;;;;5034101;28;20025;-80
2022/02/01 10:48:27;;;;;;;24.73;15.30;;;1.00;98.00;;;;;;5016541;28;20077;-80
2022/02/01 10:51:13;;;;;;;22.38;14.25;;;0.90;98.10;;;;;;5034878;28;20071;-79
2022/02/01 10:53:39;;;;;;;19.05;11.93;;;0.80;98.20;;;;;;5033588;28;20390;-81
2022/02/01 10:56:10;;;;;;;23.98;11.80;;;0.80;98.30;;;;;;5017341;28;20116;-81
2022/02/01 10:58:37;;;;;;;22.10;13.00;;;0.70;98.40;;;;;;5034027;28;20033;-81
2022/02/01 11:01:04;;;;;;;20.92;13.68;;;0.70;98.40;;;;;;5024108;28;20022;-81
2022/02/01 11:03:31;;;;;;;21.27;11.63;;;0.70;98.50;;;;;;5014115;28;20466;-81
2022/02/01 11:05:58;;;;;;;19.80;12.20;;;0.70;98.40;;;;;;5029272;28;20018;-81
2022/02/01 11:08:26;;;;;;;24.00;13.10;;;0.60;98.40;;;;;;5033992;28;20056;-79
2022/02/01 11:10:55;;;;;;;17.60;12.05;;;0.60;98.40;;;;;;5033737;28;20053;-81
2022/02/01 11:13:22;;;;;;;16.30;10.93;;;0.60;98.40;;;;;;5033174;28;20025;-81
2022/02/01 11:16:02;;;;;;;18.45;11.48;;;0.60;98.40;;;;;;5029301;28;20075;-81
2022/02/01 11:18:28;;;;;;;25.48;11.13;;;0.60;98.40;;;;;;5015712;28;20120;-83
2022/02/01 11:21:14;;;;;;;15.77;11.13;;;0.60;98.40;;;;;;5013737;28;20018;-81
2022/02/01 11:26:36;;;;;;;20.52;11.75;;;0.60;98.10;;;;;;5014570;28;20104;-82
2022/02/01 11:31:46;;;;;;;17.83;9.95;;;0.60;98.10;;;;;;5012614;28;20054;-79
2022/02/01 11:34:27;;;;;;;19.88;11.38;;;0.60;98.00;;;;;;5013268;28;20025;-79
2022/02/01 11:37:03;;;;;;;14.13;9.25;;;0.60;97.80;;;;;;5014457;28;20022;-80
2022/02/01 11:39:32;;;;;;;16.75;10.18;;;0.60;97.80;;;;;;5015408;28;20383;-80
2022/02/01 11:42:00;;;;;;;16.50;9.65;;;0.60;97.80;;;;;;5013922;28;20041;-79
2022/02/01 11:44:29;;;;;;;;;;;0.60;97.80;;;;;;5012134;28;20065;-81
2022/02/01 11:47:37;;;;;;;18.02;10.57;;;0.50;97.70;;;;;;5012812;28;19909;-81
2022/02/01 11:50:11;;;;;;;17.45;10.52;;;0.50;97.80;;;;;;4952179;29;20060;-80
2022/02/01 11:52:47;;;;;;;15.52;8.90;;;0.60;97.80;;;;;;4952225;29;20127;-79
2022/02/01 11:55:14;;;;;;;17.38;10.55;;;0.60;97.80;;;;;;4952040;29;20512;-80
2022/02/01 11:57:42;;;;;;;16.03;10.40;;;0.50;97.70;;;;;;4951912;29;20067;-80
2022/02/01 12:00:16;;;;;;;19.38;10.80;;;0.60;97.80;;;;;;4953023;29;20027;-80
2022/02/01 12:02:49;;;;;;;14.15;8.98;;;0.60;97.80;;;;;;4991506;28;20113;-80
2022/02/01 12:05:26;;;;;;;18.33;10.82;;;0.60;97.70;;;;;;4982603;28;20046;-78
2022/02/01 12:08:03;;;;;;;16.27;8.90;;;0.60;97.50;;;;;;4971557;28;20057;-80
2022/02/01 12:10:30;;;;;;;;;;;0.60;97.30;;;;;;4972034;28;20396;-80
2022/02/01 12:12:58;;;;;;;13.75;6.97;;;0.60;97.40;;;;;;4954974;28;19916;-80
2022/02/01 12:15:33;;;;;;;13.70;7.65;;;0.50;97.30;;;;;;4971409;28;20581;-79
2022/02/01 12:18:07;;;;;;;15.75;7.97;;;0.50;97.30;;;;;;4954167;28;20035;-80
2022/02/01 12:20:37;;;;;;;12.70;7.28;;;0.50;97.30;;;;;;4998048;28;20030;-80
2022/02/01 12:23:24;;;;;;;14.82;6.90;;;0.50;97.30;;;;;;5032366;28;20032;-77
2022/02/01 12:25:51;;;;;;;12.20;7.88;;;0.50;97.10;;;;;;5032999;28;20036;-80
2022/02/01 12:28:27;;;;;;;13.45;6.78;;;0.50;97.10;;;;;;5032999;28;20033;-81
2022/02/01 12:31:06;;;;;;;11.65;6.93;;;0.40;97.00;;;;;;5032240;28;20449;-80
2022/02/01 12:33:32;;;;;;;14.15;7.88;;;0.50;97.00;;;;;;5032884;28;20025;-80
2022/02/01 12:35:58;;;;;;;14.63;8.20;;;0.50;96.90;;;;;;5013130;28;20124;-79
2022/02/01 12:38:28;;;;;;;14.65;8.27;;;0.50;96.80;;;;;;5012299;28;20028;-79
2022/02/01 12:41:10;;;;;;;11.45;6.38;;;0.40;96.60;;;;;;5012349;28;20018;-82
2022/02/01 12:43:55;;;;;;;15.20;8.00;;;0.40;96.60;;;;;;5012345;28;20084;-81
2022/02/01 12:46:39;;;;;;;11.82;8.25;;;0.40;96.40;;;;;;5012147;28;20430;-80
2022/02/01 12:49:05;;;;;;;13.32;7.07;;;0.40;96.30;;;;;;5013126;28;20464;-80
2022/02/01 12:51:46;;;;;;;11.07;6.25;;;0.40;96.10;;;;;;4994594;28;20057;-83
2022/02/01 12:54:29;;;;;;;10.95;5.55;;;0.30;95.80;;;;;;5014232;28;20033;-81
2022/02/01 12:57:15;;;;;;;8.70;5.68;;;0.30;95.60;;;;;;4997446;28;20575;-80
2022/02/01 13:00:21;;;;;;;10.00;5.97;;;0.30;95.40;;;;;;5015977;28;20025;-81
2022/02/01 13:02:47;;;;;;;15.70;6.22;;;0.20;95.20;;;;;;4992642;28;20030;-80
2022/02/01 13:05:16;;;;;;;10.77;5.22;;;0.20;95.20;;;;;;4977640;28;20122;-84
2022/02/01 13:13:08;;;;;;;11.35;5.45;;;0.20;94.60;;;;;;4971502;28;20042;-79
2022/02/01 13:15:40;;;;;;;8.60;4.80;;;0.20;94.60;;;;;;4971150;28;20608;-82
2022/02/01 13:20:41;;;;;;;8.20;5.90;;;0.10;94.80;;;;;;4971438;28;20361;-81
2022/02/01 13:23:08;;;;;;;14.43;5.93;;;0.20;94.70;;;;;;4971938;28;20034;-79
2022/02/01 13:25:40;;;;;;;11.55;6.05;;;0.20;94.80;;;;;;4980437;28;20081;-82
2022/02/01 13:28:10;;;;;;;8.27;5.72;;;0.20;94.80;;;;;;4973429;28;20038;-81
2022/02/01 13:30:38;;;;;;;11.15;5.10;;;0.20;94.80;;;;;;4989805;28;20108;-82
2022/02/01 13:33:09;;;;;;;11.00;6.38;;;0.30;94.90;;;;;;4989945;28;20034;-83
2022/02/01 13:35:52;;;;;;;10.10;6.43;;;0.30;94.80;;;;;;4973606;28;20689;-81
2022/02/01 13:38:21;;;;;;;10.27;6.47;;;0.30;94.70;;;;;;4993188;28;20044;-81
2022/02/01 13:40:47;;;;;;;13.68;5.72;;;0.30;94.70;;;;;;5015083;28;20383;-80
2022/02/01 13:43:24;;;;;;;10.57;6.25;;;0.30;94.70;;;;;;5015189;28;20033;-80
2022/02/01 13:45:51;;;;;;;9.50;6.20;;;0.30;94.70;;;;;;5017209;28;20063;-80
2022/02/01 13:48:22;;;;;;;13.32;7.57;;;0.30;94.80;;;;;;4998356;28;20030;-82
2022/02/01 13:50:49;;;;;;;18.77;9.45;;;0.30;94.90;;;;;;5016946;28;20025;-79
2022/02/01 13:53:17;;;;;;;16.20;7.45;;;0.30;95.00;;;;;;5019845;28;20045;-80
2022/02/01 13:55:44;;;;;;;12.95;6.60;;;0.30;95.10;;;;;;5034509;28;20023;-81
2022/02/01 13:58:19;;;;;;;12.60;5.82;;;0.30;95.20;;;;;;5032727;28;20026;-80
2022/02/01 14:00:49;;;;;;;11.65;7.50;;;0.30;95.30;;;;;;5014891;28;20034;-81
2022/02/01 14:06:08;;;;;;;12.15;6.95;;;0.40;95.60;;;;;;5016038;28;20026;-83
2022/02/01 14:08:42;;;;;;;14.68;8.25;;;0.30;95.60;;;;;;5019693;28;20446;-80
2022/02/01 14:35:44;;;;;;;14.90;7.72;;;0.30;96.30;;;;;;4955119;29;20031;-81
2022/02/01 14:38:32;;;;;;;13.70;9.18;;;0.40;96.30;;;;;;4956649;29;20035;-81
2022/02/01 14:44:04;;;;;;;14.57;8.90;;;0.40;96.40;;;;;;4952960;29;20042;-83
2022/02/01 14:46:31;;;;;;;16.25;8.80;;;0.40;96.50;;;;;;4937715;29;20023;-81
2022/02/01 14:48:56;;;;;;;12.88;7.35;;;0.40;96.60;;;;;;4987920;28;20042;-80
2022/02/01 14:51:22;;;;;;;15.45;8.23;;;0.30;96.80;;;;;;5016033;28;20018;-81
2022/02/01 14:53:50;;;;;;;17.50;8.75;;;0.30;96.80;;;;;;5014584;28;20034;-80
2022/02/01 14:56:26;;;;;;;13.88;8.85;;;0.40;96.90;;;;;;5013991;28;20100;-81
2022/02/01 15:14:34;;;;;;;14.77;9.20;;;0.30;97.80;;;;;;5016140;28;20044;-85
2022/02/01 15:16:59;;;;;;;15.35;8.40;;;0.40;98.00;;;;;;5033179;28;20026;-81
2022/02/01 15:19:28;;;;;;;17.30;10.43;;;0.40;98.20;;;;;;5033144;28;20057;-80
2022/02/01 15:21:54;;;;;;;17.20;8.95;;;0.30;98.30;;;;;;5033617;28;20029;-80